createdAt,value
2023-03-06T14:50:29.814Z,59.35
2023-03-06T14:53:16.136Z,59.20
2023-03-06T14:56:00.061Z,60.05
2023-03-06T14:58:35.892Z,59.35
2023-03-06T15:01:06.604Z,60.30
2023-03-06T15:03:47.326Z,60.17
2023-03-06T15:06:29.361Z,62.45
2023-03-06T15:09:07.878Z,58.38
2023-03-06T15:12:00.184Z,63.65
2023-03-06T15:14:33.516Z,60.42
2023-03-06T15:17:23.783Z,61.35
2023-03-06T15:19:57.275Z,59.95
2023-03-06T15:22:31.469Z,68.70
2023-03-06T15:25:22.015Z,73.00
2023-03-06T15:28:04.828Z,75.70
2023-03-06T15:30:35.687Z,79.18
2023-03-06T15:33:30.285Z,72.07
2023-03-06T15:36:06.832Z,70.15
2023-03-06T15:38:44.290Z,72.20
2023-03-06T15:41:37.520Z,67.90
2023-03-06T15:44:15.527Z,76.13
2023-03-06T15:46:44.141Z,72.70
2023-03-06T15:49:17.338Z,67.88
2023-03-06T15:51:46.091Z,67.22
2023-03-06T15:54:14.589Z,74.28
2023-03-06T15:56:45.053Z,73.40
2023-03-06T15:59:33.366Z,66.88
2023-03-06T16:02:11.181Z,71.40
2023-03-06T16:04:39.619Z,70.00
2023-03-06T16:07:08.756Z,67.13
2023-03-06T16:09:37.290Z,67.68
2023-03-06T16:12:06.486Z,70.40
2023-03-06T16:14:35.193Z,74.38
2023-03-06T16:17:03.840Z,73.35
2023-03-06T16:19:32.177Z,74.68
2023-03-06T16:22:01.312Z,79.38
2023-03-06T16:24:29.616Z,70.50
2023-03-06T16:27:00.691Z,72.20
2023-03-06T16:29:29.779Z,75.93
2023-03-06T16:32:00.831Z,80.18
2023-03-06T16:34:29.236Z,79.90
2023-03-06T16:36:57.941Z,78.38
2023-03-06T16:39:26.305Z,83.57
2023-03-06T16:41:55.336Z,79.70
2023-03-06T16:44:23.717Z,75.40
2023-03-06T16:46:52.418Z,75.22
2023-03-06T16:49:25.477Z,77.30
2023-03-06T16:51:54.991Z,85.53
2023-03-06T16:54:26.253Z,78.45
2023-03-06T16:59:25.017Z,88.07
2023-03-06T17:01:53.667Z,73.33
2023-03-06T17:04:21.942Z,67.50
2023-03-06T17:06:52.681Z,71.47
2023-03-06T17:09:20.993Z,74.25
2023-03-06T17:11:49.816Z,74.22
2023-03-06T17:14:18.119Z,66.38
2023-03-06T17:16:46.716Z,67.88
2023-03-06T17:19:15.639Z,71.10
2023-03-06T17:21:44.909Z,67.22
2023-03-06T17:24:13.214Z,64.03
2023-03-06T17:26:43.359Z,68.72
2023-03-06T17:29:12.238Z,74.53
2023-03-06T17:31:40.891Z,67.30
2023-03-06T17:34:09.218Z,64.90
2023-03-06T17:36:37.896Z,69.65
2023-03-06T17:39:06.276Z,63.28
2023-03-06T17:41:34.912Z,69.30
2023-03-06T17:44:03.297Z,64.53
2023-03-06T17:46:32.311Z,67.95
2023-03-06T17:49:00.737Z,73.55
2023-03-06T17:51:29.407Z,64.57
2023-03-06T17:53:57.744Z,66.50
2023-03-06T17:56:27.366Z,60.08
2023-03-06T17:58:56.596Z,71.07
2023-03-06T18:01:30.684Z,63.78
2023-03-06T18:03:59.283Z,60.28
2023-03-06T18:06:30.306Z,65.65
2023-03-06T18:08:59.292Z,55.53
2023-03-06T18:11:28.326Z,58.90
2023-03-06T18:13:56.841Z,59.30
2023-03-06T18:16:26.593Z,57.00
2023-03-06T18:18:56.208Z,80.47
2023-03-06T18:21:25.298Z,59.55
2023-03-06T18:23:53.831Z,52.63
2023-03-06T18:26:27.766Z,57.50
2023-03-06T18:28:58.766Z,53.78
2023-03-06T18:31:33.705Z,55.90
2023-03-06T18:34:14.286Z,59.67
2023-03-06T18:36:43.680Z,59.70
2023-03-06T18:39:13.731Z,51.17
2023-03-06T18:41:42.982Z,52.53
2023-03-06T18:44:14.441Z,52.53
2023-03-06T18:46:43.312Z,56.92
2023-03-06T18:49:12.761Z,53.75
2023-03-06T18:51:42.648Z,65.43
2023-03-06T18:54:11.622Z,56.67
2023-03-06T18:56:44.139Z,57.50
2023-03-06T18:59:18.799Z,59.28
2023-03-06T19:01:48.264Z,54.45
2023-03-06T19:04:16.898Z,58.95
2023-03-06T19:06:45.659Z,51.78
2023-03-06T19:09:14.453Z,53.78
2023-03-06T19:11:45.631Z,50.90
2023-03-06T19:14:15.200Z,49.60
2023-03-06T19:16:43.932Z,44.00
2023-03-06T19:19:12.295Z,53.33
2023-03-06T19:21:40.974Z,39.95
2023-03-06T19:24:14.047Z,38.17
2023-03-06T19:26:43.156Z,47.08
2023-03-06T19:29:23.396Z,48.38
2023-03-06T19:31:52.348Z,34.35
2023-03-06T19:34:20.784Z,43.53
2023-03-06T19:36:50.734Z,40.67
2023-03-06T19:39:19.089Z,40.65
2023-03-06T19:41:48.449Z,44.20
2023-03-06T19:44:16.772Z,45.88
2023-03-06T19:46:45.507Z,53.85
2023-03-06T19:49:16.926Z,49.42
2023-03-06T19:51:45.629Z,54.45
2023-03-06T19:54:14.536Z,50.30
2023-03-06T19:56:43.342Z,55.13
2023-03-06T19:59:11.637Z,47.30
2023-03-06T20:01:40.585Z,48.78
2023-03-06T20:04:09.024Z,45.80
2023-03-06T20:06:38.928Z,45.42
2023-03-06T20:09:09.530Z,46.03
2023-03-06T20:11:38.553Z,43.58
2023-03-06T20:14:09.018Z,44.20
2023-03-06T20:16:37.799Z,48.65
2023-03-06T20:19:06.544Z,45.85
2023-03-06T20:21:37.816Z,46.25
2023-03-06T20:24:07.674Z,43.40
2023-03-06T20:26:38.137Z,41.58
2023-03-06T20:29:06.456Z,45.72
2023-03-06T20:31:35.319Z,47.03
2023-03-06T20:34:04.126Z,47.72
2023-03-06T20:36:39.364Z,41.72
2023-03-06T20:39:11.168Z,43.33
2023-03-06T20:41:40.676Z,35.20
2023-03-06T20:44:17.202Z,38.88
2023-03-06T20:47:04.338Z,34.35
2023-03-06T20:49:32.711Z,38.63
2023-03-06T20:52:01.453Z,42.78
2023-03-06T20:54:29.814Z,47.05
2023-03-06T20:56:58.531Z,42.58
2023-03-06T20:59:26.843Z,40.75
2023-03-06T21:01:55.470Z,46.45
2023-03-06T21:04:23.784Z,54.10
2023-03-06T21:06:54.056Z,77.82
2023-03-06T21:09:22.605Z,62.88
2023-03-06T21:11:51.214Z,49.20
2023-03-06T21:14:19.495Z,50.15
2023-03-06T21:16:48.304Z,43.92
2023-03-06T21:19:17.167Z,39.25
2023-03-06T21:21:45.973Z,49.35
2023-03-06T21:24:14.356Z,46.55
2023-03-06T21:26:42.940Z,51.40
2023-03-06T21:29:11.267Z,50.03
2023-03-06T21:31:41.058Z,52.47
2023-03-06T21:34:11.512Z,46.70
2023-03-06T21:36:40.469Z,52.65
2023-03-06T21:39:08.775Z,42.20
2023-03-06T21:41:38.329Z,48.53
2023-03-06T21:44:06.912Z,50.45
